sensor_id;sensor_type;location;lat;lon;timestamp;pressure;altitude;pressure_sealevel;temperature;humidity
47260;BME280;32999;52.412;4.890;2023-04-22T00:04:08;100866.19;;;10.07;100.00
47260;BME280;32999;52.412;4.890;2023-04-22T00:09:11;100915.66;;;10.17;100.00
47260;BME280;32999;52.412;4.890;2023-04-22T00:14:12;100920.06;;;10.10;100.00
47260;BME280;32999;52.412;4.890;2023-04-22T00:19:16;100903.59;;;10.07;100.00
47260;BME280;32999;52.412;4.890;2023-04-22T00:24:17;100922.81;;;10.02;100.00
47260;BME280;32999;52.412;4.890;2023-04-22T00:29:19;100939.19;;;9.99;100.00
47260;BME280;32999;52.412;4.890;2023-04-22T00:34:23;100906.59;;;9.89;100.00
47260;BME280;32999;52.412;4.890;2023-04-22T00:39:24;100811.06;;;9.24;100.00
47260;BME280;32999;52.412;4.890;2023-04-22T00:44:26;100917.81;;;9.84;100.00
47260;BME280;32999;52.412;4.890;2023-04-22T00:49:30;100804.41;;;9.20;100.00
47260;BME280;32999;52.412;4.890;2023-04-22T00:54:33;100922.66;;;9.81;100.00
47260;BME280;32999;52.412;4.890;2023-04-22T00:59:35;100915.59;;;9.88;100.00
47260;BME280;32999;52.412;4.890;2023-04-22T01:04:38;100850.31;;;9.38;100.00
47260;BME280;32999;52.412;4.890;2023-04-22T01:09:40;100857.22;;;9.47;100.00
47260;BME280;32999;52.412;4.890;2023-04-22T01:14:42;100820.06;;;9.23;100.00
47260;BME280;32999;52.412;4.890;2023-04-22T01:19:45;100907.88;;;9.70;100.00
47260;BME280;32999;52.412;4.890;2023-04-22T01:24:49;100833.09;;;9.18;100.00
47260;BME280;32999;52.412;4.890;2023-04-22T01:29:51;100918.81;;;9.61;100.00
47260;BME280;32999;52.412;4.890;2023-04-22T01:34:53;100921.22;;;9.70;100.00
47260;BME280;32999;52.412;4.890;2023-04-22T01:39:58;100919.31;;;9.64;100.00
47260;BME280;32999;52.412;4.890;2023-04-22T01:45:00;100929.84;;;9.58;100.00
47260;BME280;32999;52.412;4.890;2023-04-22T01:50:01;100913.22;;;9.47;100.00
47260;BME280;32999;52.412;4.890;2023-04-22T01:55:07;100911.00;;;9.36;100.00
47260;BME280;32999;52.412;4.890;2023-04-22T02:00:10;100909.31;;;9.35;100.00
47260;BME280;32999;52.412;4.890;2023-04-22T02:05:11;100922.50;;;9.37;100.00
47260;BME280;32999;52.412;4.890;2023-04-22T02:10:15;100870.88;;;8.99;100.00
47260;BME280;32999;52.412;4.890;2023-04-22T02:15:16;100798.50;;;8.56;100.00
47260;BME280;32999;52.412;4.890;2023-04-22T02:20:18;100910.25;;;9.19;100.00
47260;BME280;32999;52.412;4.890;2023-04-22T02:25:21;100911.84;;;9.06;100.00
47260;BME280;32999;52.412;4.890;2023-04-22T02:30:23;100914.16;;;9.09;100.00
47260;BME280;32999;52.412;4.890;2023-04-22T02:35:25;100905.16;;;9.10;100.00
47260;BME280;32999;52.412;4.890;2023-04-22T02:40:28;100864.19;;;8.72;100.00
47260;BME280;32999;52.412;4.890;2023-04-22T02:45:30;100868.31;;;8.82;100.00
47260;BME280;32999;52.412;4.890;2023-04-22T02:50:31;100924.19;;;8.99;100.00
47260;BME280;32999;52.412;4.890;2023-04-22T02:55:34;100884.72;;;8.94;100.00
47260;BME280;32999;52.412;4.890;2023-04-22T03:00:36;100839.53;;;8.70;100.00
47260;BME280;32999;52.412;4.890;2023-04-22T03:05:38;100785.28;;;8.40;100.00
47260;BME280;32999;52.412;4.890;2023-04-22T03:10:41;100885.88;;;9.00;100.00
47260;BME280;32999;52.412;4.890;2023-04-22T03:15:43;100873.06;;;8.95;100.00
47260;BME280;32999;52.412;4.890;2023-04-22T03:20:45;100825.69;;;8.74;100.00
47260;BME280;32999;52.412;4.890;2023-04-22T03:25:48;100822.28;;;8.66;100.00
47260;BME280;32999;52.412;4.890;2023-04-22T03:30:50;100857.31;;;8.85;100.00
47260;BME280;32999;52.412;4.890;2023-04-22T03:35:52;100855.31;;;8.79;100.00
47260;BME280;32999;52.412;4.890;2023-04-22T03:40:56;100850.19;;;8.70;100.00
47260;BME280;32999;52.412;4.890;2023-04-22T03:45:58;100848.75;;;8.59;100.00
47260;BME280;32999;52.412;4.890;2023-04-22T03:51:00;100850.63;;;8.50;100.00
47260;BME280;32999;52.412;4.890;2023-04-22T03:56:03;100766.47;;;7.86;100.00
47260;BME280;32999;52.412;4.890;2023-04-22T04:01:05;100762.16;;;7.77;100.00
47260;BME280;32999;52.412;4.890;2023-04-22T04:06:07;100833.88;;;8.26;100.00
47260;BME280;32999;52.412;4.890;2023-04-22T04:11:10;100822.91;;;8.20;100.00
47260;BME280;32999;52.412;4.890;2023-04-22T04:16:12;100827.38;;;8.20;100.00
47260;BME280;32999;52.412;4.890;2023-04-22T04:21:13;100831.09;;;8.11;100.00
47260;BME280;32999;52.412;4.890;2023-04-22T04:26:17;100817.97;;;8.01;100.00
47260;BME280;32999;52.412;4.890;2023-04-22T04:31:19;100735.47;;;7.38;100.00
47260;BME280;32999;52.412;4.890;2023-04-22T04:36:24;100778.44;;;7.74;100.00
47260;BME280;32999;52.412;4.890;2023-04-22T04:41:30;100807.88;;;7.89;100.00
47260;BME280;32999;52.412;4.890;2023-04-22T04:46:32;100823.94;;;8.11;100.00
47260;BME280;32999;52.412;4.890;2023-04-22T04:51:36;100733.94;;;7.51;100.00
47260;BME280;32999;52.412;4.890;2023-04-22T04:56:40;100745.69;;;7.81;100.00
47260;BME280;32999;52.412;4.890;2023-04-22T05:01:41;100822.19;;;8.43;100.00
47260;BME280;32999;52.412;4.890;2023-04-22T05:06:43;100793.88;;;8.42;100.00
47260;BME280;32999;52.412;4.890;2023-04-22T05:11:46;100770.97;;;8.25;100.00
47260;BME280;32999;52.412;4.890;2023-04-22T05:16:48;100741.16;;;8.29;100.00
47260;BME280;32999;52.412;4.890;2023-04-22T05:21:50;100718.41;;;8.18;100.00
47260;BME280;32999;52.412;4.890;2023-04-22T05:26:53;100722.38;;;8.23;100.00
47260;BME280;32999;52.412;4.890;2023-04-22T05:31:54;100830.50;;;9.10;100.00
47260;BME280;32999;52.412;4.890;2023-04-22T05:36:56;100833.03;;;9.26;100.00
47260;BME280;32999;52.412;4.890;2023-04-22T05:41:59;100830.88;;;9.44;100.00
47260;BME280;32999;52.412;4.890;2023-04-22T05:47:02;100779.28;;;9.37;100.00
47260;BME280;32999;52.412;4.890;2023-04-22T05:52:04;100759.63;;;9.38;100.00
47260;BME280;32999;52.412;4.890;2023-04-22T05:57:08;100773.16;;;9.51;100.00
47260;BME280;32999;52.412;4.890;2023-04-22T06:02:09;100762.69;;;9.65;100.00
47260;BME280;32999;52.412;4.890;2023-04-22T06:07:11;100783.78;;;9.89;100.00
47260;BME280;32999;52.412;4.890;2023-04-22T06:12:14;100765.56;;;10.07;100.00
47260;BME280;32999;52.412;4.890;2023-04-22T06:17:16;100841.00;;;10.53;100.00
47260;BME280;32999;52.412;4.890;2023-04-22T06:22:17;100838.88;;;10.64;100.00
47260;BME280;32999;52.412;4.890;2023-04-22T06:27:21;100710.31;;;9.93;100.00
47260;BME280;32999;52.412;4.890;2023-04-22T06:32:22;100760.28;;;10.43;100.00
47260;BME280;32999;52.412;4.890;2023-04-22T06:37:24;100797.19;;;10.69;100.00
47260;BME280;32999;52.412;4.890;2023-04-22T06:42:27;100797.69;;;10.58;100.00
47260;BME280;32999;52.412;4.890;2023-04-22T06:47:29;100728.63;;;10.26;100.00
47260;BME280;32999;52.412;4.890;2023-04-22T06:52:31;100785.84;;;10.67;100.00
47260;BME280;32999;52.412;4.890;2023-04-22T06:57:34;100810.00;;;10.95;100.00
47260;BME280;32999;52.412;4.890;2023-04-22T07:02:37;100780.28;;;11.05;100.00
47260;BME280;32999;52.412;4.890;2023-04-22T07:07:38;100791.25;;;11.31;100.00
47260;BME280;32999;52.412;4.890;2023-04-22T07:12:42;100697.25;;;11.13;100.00
47260;BME280;32999;52.412;4.890;2023-04-22T07:17:44;100785.94;;;11.87;100.00
47260;BME280;32999;52.412;4.890;2023-04-22T07:22:46;100792.06;;;12.15;100.00
47260;BME280;32999;52.412;4.890;2023-04-22T07:27:49;100795.44;;;12.24;100.00
47260;BME280;32999;52.412;4.890;2023-04-22T07:32:51;100729.81;;;12.13;100.00
47260;BME280;32999;52.412;4.890;2023-04-22T07:38:17;100785.88;;;12.63;100.00
47260;BME280;32999;52.412;4.890;2023-04-22T07:43:23;100723.84;;;12.72;100.00
47260;BME280;32999;52.412;4.890;2023-04-22T07:48:25;100685.09;;;12.94;100.00
47260;BME280;32999;52.412;4.890;2023-04-22T07:53:27;100774.72;;;13.46;100.00
47260;BME280;32999;52.412;4.890;2023-04-22T07:58:30;100715.03;;;13.44;100.00
47260;BME280;32999;52.412;4.890;2023-04-22T08:03:32;100693.78;;;13.43;100.00
47260;BME280;32999;52.412;4.890;2023-04-22T08:08:34;100721.31;;;14.09;100.00
47260;BME280;32999;52.412;4.890;2023-04-22T08:13:37;100712.31;;;14.35;100.00
47260;BME280;32999;52.412;4.890;2023-04-22T08:18:39;100749.75;;;15.38;100.00
47260;BME280;32999;52.412;4.890;2023-04-22T08:23:40;100711.22;;;15.62;100.00
47260;BME280;32999;52.412;4.890;2023-04-22T08:28:43;100707.78;;;15.30;100.00
47260;BME280;32999;52.412;4.890;2023-04-22T08:33:45;100644.59;;;15.32;100.00
47260;BME280;32999;52.412;4.890;2023-04-22T08:38:47;100638.06;;;15.40;100.00
47260;BME280;32999;52.412;4.890;2023-04-22T08:43:51;100633.25;;;16.15;100.00
47260;BME280;32999;52.412;4.890;2023-04-22T08:48:53;100687.28;;;16.98;100.00
47260;BME280;32999;52.412;4.890;2023-04-22T08:53:56;100658.09;;;17.30;100.00
47260;BME280;32999;52.412;4.890;2023-04-22T08:58:59;100675.00;;;17.73;100.00
47260;BME280;32999;52.412;4.890;2023-04-22T09:04:02;100670.94;;;18.67;100.00
47260;BME280;32999;52.412;4.890;2023-04-22T09:09:04;100613.53;;;18.36;100.00
47260;BME280;32999;52.412;4.890;2023-04-22T09:14:10;100618.06;;;18.48;100.00
47260;BME280;32999;52.412;4.890;2023-04-22T09:19:12;100624.66;;;19.19;100.00
47260;BME280;32999;52.412;4.890;2023-04-22T09:24:15;100583.84;;;20.66;100.00
47260;BME280;32999;52.412;4.890;2023-04-22T09:29:18;100648.13;;;22.19;100.00
47260;BME280;32999;52.412;4.890;2023-04-22T09:34:20;100594.78;;;21.51;100.00
47260;BME280;32999;52.412;4.890;2023-04-22T09:39:22;100594.47;;;21.47;100.00
47260;BME280;32999;52.412;4.890;2023-04-22T09:44:26;100655.41;;;22.09;100.00
47260;BME280;32999;52.412;4.890;2023-04-22T09:49:28;100609.41;;;23.59;90.71
47260;BME280;32999;52.412;4.890;2023-04-22T09:54:30;100630.94;;;23.71;88.47
47260;BME280;32999;52.412;4.890;2023-04-22T09:59:33;100520.63;;;23.82;80.68
47260;BME280;32999;52.412;4.890;2023-04-22T10:04:35;100543.66;;;24.10;69.03
47260;BME280;32999;52.412;4.890;2023-04-22T10:09:37;100562.66;;;22.46;80.09
47260;BME280;32999;52.412;4.890;2023-04-22T10:14:41;100579.88;;;21.68;88.91
47260;BME280;32999;52.412;4.890;2023-04-22T10:19:45;100565.38;;;21.05;98.35
47260;BME280;32999;52.412;4.890;2023-04-22T10:24:47;100630.19;;;20.87;100.00
47260;BME280;32999;52.412;4.890;2023-04-22T10:29:56;100607.50;;;20.71;100.00
47260;BME280;32999;52.412;4.890;2023-04-22T10:35:10;100641.44;;;21.00;100.00
47260;BME280;32999;52.412;4.890;2023-04-22T10:40:14;100594.59;;;20.29;100.00
47260;BME280;32999;52.412;4.890;2023-04-22T10:45:23;100631.81;;;19.25;100.00
47260;BME280;32999;52.412;4.890;2023-04-22T10:50:26;100654.47;;;19.02;100.00
47260;BME280;32999;52.412;4.890;2023-04-22T10:55:49;100613.03;;;19.57;100.00
47260;BME280;32999;52.412;4.890;2023-04-22T11:00:53;100634.59;;;19.68;100.00
47260;BME280;32999;52.412;4.890;2023-04-22T11:06:18;100645.25;;;19.36;100.00
47260;BME280;32999;52.412;4.890;2023-04-22T11:11:28;100607.03;;;18.83;100.00
47260;BME280;32999;52.412;4.890;2023-04-22T11:16:33;100641.81;;;19.08;100.00
47260;BME280;32999;52.412;4.890;2023-04-22T11:21:35;100594.06;;;18.68;100.00
47260;BME280;32999;52.412;4.890;2023-04-22T11:26:37;100638.13;;;19.14;100.00
47260;BME280;32999;52.412;4.890;2023-04-22T11:31:47;100633.47;;;18.76;100.00
47260;BME280;32999;52.412;4.890;2023-04-22T11:36:49;100662.03;;;18.26;100.00
47260;BME280;32999;52.412;4.890;2023-04-22T11:41:51;100657.38;;;17.70;100.00
47260;BME280;32999;52.412;4.890;2023-04-22T11:46:56;100682.03;;;17.39;100.00
47260;BME280;32999;52.412;4.890;2023-04-22T11:51:58;100616.16;;;16.81;100.00
47260;BME280;32999;52.412;4.890;2023-04-22T11:57:02;100622.84;;;16.49;100.00
47260;BME280;32999;52.412;4.890;2023-04-22T12:02:11;100645.44;;;15.70;100.00
47260;BME280;32999;52.412;4.890;2023-04-22T12:07:14;100594.75;;;14.80;100.00
47260;BME280;32999;52.412;4.890;2023-04-22T12:12:57;100586.06;;;13.77;100.00
47260;BME280;32999;52.412;4.890;2023-04-22T12:24:18;100669.25;;;13.97;100.00
47260;BME280;32999;52.412;4.890;2023-04-22T12:58:08;100708.94;;;11.68;100.00
47260;BME280;32999;52.412;4.890;2023-04-22T13:09:25;100513.69;;;11.05;100.00
47260;BME280;32999;52.412;4.890;2023-04-22T13:14:31;100676.88;;;12.15;100.00
47260;BME280;32999;52.412;4.890;2023-04-22T14:07:33;100631.81;;;11.43;100.00
47260;BME280;32999;52.412;4.890;2023-04-22T14:12:38;100663.81;;;11.58;100.00
47260;BME280;32999;52.412;4.890;2023-04-22T14:40:37;100751.69;;;11.54;100.00
47260;BME280;32999;52.412;4.890;2023-04-22T14:45:55;100614.03;;;10.52;100.00
47260;BME280;32999;52.412;4.890;2023-04-22T14:51:27;100764.19;;;11.47;100.00
47260;BME280;32999;52.412;4.890;2023-04-22T15:08:42;100798.34;;;11.45;100.00
47260;BME280;32999;52.412;4.890;2023-04-22T15:14:09;100738.53;;;11.04;100.00
47260;BME280;32999;52.412;4.890;2023-04-22T15:19:26;100806.94;;;11.62;100.00
47260;BME280;32999;52.412;4.890;2023-04-22T15:24:51;100643.63;;;10.50;100.00
47260;BME280;32999;52.412;4.890;2023-04-22T15:29:58;100813.25;;;11.54;100.00
47260;BME280;32999;52.412;4.890;2023-04-22T15:35:29;100680.84;;;10.73;100.00
47260;BME280;32999;52.412;4.890;2023-04-22T15:40:40;100814.47;;;11.52;100.00
47260;BME280;32999;52.412;4.890;2023-04-22T15:45:58;100795.50;;;11.47;100.00
47260;BME280;32999;52.412;4.890;2023-04-22T15:51:18;100797.22;;;11.54;100.00
47260;BME280;32999;52.412;4.890;2023-04-22T15:56:36;100799.69;;;11.56;100.00
47260;BME280;32999;52.412;4.890;2023-04-22T16:01:38;100784.69;;;11.34;100.00
47260;BME280;32999;52.412;4.890;2023-04-22T16:06:41;100649.59;;;10.52;100.00
47260;BME280;32999;52.412;4.890;2023-04-22T16:12:03;100676.25;;;10.67;100.00
47260;BME280;32999;52.412;4.890;2023-04-22T16:17:08;100691.53;;;10.73;100.00
47260;BME280;32999;52.412;4.890;2023-04-22T16:22:16;100805.03;;;11.56;100.00
47260;BME280;32999;52.412;4.890;2023-04-22T16:27:21;100746.16;;;11.28;100.00
47260;BME280;32999;52.412;4.890;2023-04-22T16:32:25;100659.44;;;10.95;100.00
47260;BME280;32999;52.412;4.890;2023-04-22T16:37:32;100691.91;;;11.13;100.00
47260;BME280;32999;52.412;4.890;2023-04-22T16:42:43;100819.03;;;12.07;100.00
47260;BME280;32999;52.412;4.890;2023-04-22T16:47:45;100795.03;;;11.92;100.00
47260;BME280;32999;52.412;4.890;2023-04-22T16:52:47;100671.28;;;11.35;100.00
47260;BME280;32999;52.412;4.890;2023-04-22T16:57:51;100765.47;;;12.07;100.00
47260;BME280;32999;52.412;4.890;2023-04-22T17:02:56;100657.41;;;11.24;100.00
47260;BME280;32999;52.412;4.890;2023-04-22T17:08:01;100789.41;;;12.15;100.00
47260;BME280;32999;52.412;4.890;2023-04-22T17:13:05;100647.50;;;11.18;100.00
47260;BME280;32999;52.412;4.890;2023-04-22T17:18:07;100805.84;;;12.06;100.00
47260;BME280;32999;52.412;4.890;2023-04-22T17:23:12;100637.97;;;11.09;100.00
47260;BME280;32999;52.412;4.890;2023-04-22T17:28:16;100680.03;;;11.22;100.00
47260;BME280;32999;52.412;4.890;2023-04-22T17:33:19;100806.31;;;11.88;100.00
47260;BME280;32999;52.412;4.890;2023-04-22T17:38:20;100722.13;;;11.35;100.00
47260;BME280;32999;52.412;4.890;2023-04-22T17:43:24;100703.59;;;11.33;100.00
47260;BME280;32999;52.412;4.890;2023-04-22T17:48:26;100791.31;;;11.87;100.00
47260;BME280;32999;52.412;4.890;2023-04-22T17:53:28;100639.44;;;10.90;100.00
47260;BME280;32999;52.412;4.890;2023-04-22T17:58:32;100781.44;;;11.66;100.00
47260;BME280;32999;52.412;4.890;2023-04-22T18:03:37;100794.41;;;11.63;100.00
47260;BME280;32999;52.412;4.890;2023-04-22T18:08:39;100787.97;;;11.57;100.00
47260;BME280;32999;52.412;4.890;2023-04-22T18:13:42;100772.88;;;11.49;100.00
47260;BME280;32999;52.412;4.890;2023-04-22T18:18:45;100780.63;;;11.44;100.00
47260;BME280;32999;52.412;4.890;2023-04-22T18:23:48;100789.84;;;11.35;100.00
47260;BME280;32999;52.412;4.890;2023-04-22T18:28:51;100795.69;;;11.24;100.00
47260;BME280;32999;52.412;4.890;2023-04-22T18:33:55;100720.94;;;10.73;100.00
47260;BME280;32999;52.412;4.890;2023-04-22T18:39:00;100819.47;;;11.12;100.00
47260;BME280;32999;52.412;4.890;2023-04-22T18:44:21;100815.44;;;11.02;100.00
47260;BME280;32999;52.412;4.890;2023-04-22T18:49:23;100823.47;;;11.02;100.00
47260;BME280;32999;52.412;4.890;2023-04-22T18:54:26;100763.69;;;10.52;100.00
47260;BME280;32999;52.412;4.890;2023-04-22T18:59:30;100833.19;;;10.88;100.00
47260;BME280;32999;52.412;4.890;2023-04-22T19:04:36;100846.66;;;10.80;100.00
47260;BME280;32999;52.412;4.890;2023-04-22T19:09:37;100803.59;;;10.53;100.00
47260;BME280;32999;52.412;4.890;2023-04-22T19:14:41;100800.53;;;10.42;100.00
47260;BME280;32999;52.412;4.890;2023-04-22T19:19:43;100860.50;;;10.69;100.00
47260;BME280;32999;52.412;4.890;2023-04-22T19:24:45;100838.91;;;10.34;100.00
47260;BME280;32999;52.412;4.890;2023-04-22T19:29:49;100821.75;;;10.29;100.00
47260;BME280;32999;52.412;4.890;2023-04-22T19:34:52;100809.28;;;10.06;100.00
47260;BME280;32999;52.412;4.890;2023-04-22T19:39:54;100904.00;;;10.48;100.00
47260;BME280;32999;52.412;4.890;2023-04-22T19:45:05;100880.69;;;10.27;100.00
47260;BME280;32999;52.412;4.890;2023-04-22T19:50:08;100881.09;;;10.16;100.00
47260;BME280;32999;52.412;4.890;2023-04-22T19:55:11;100871.72;;;10.05;100.00
47260;BME280;32999;52.412;4.890;2023-04-22T20:00:16;100870.25;;;10.03;100.00
47260;BME280;32999;52.412;4.890;2023-04-22T20:05:18;100855.00;;;9.74;100.00
47260;BME280;32999;52.412;4.890;2023-04-22T20:10:20;100843.47;;;9.73;100.00
47260;BME280;32999;52.412;4.890;2023-04-22T20:15:24;100804.66;;;9.33;100.00
47260;BME280;32999;52.412;4.890;2023-04-22T20:20:26;100815.84;;;9.51;100.00
47260;BME280;32999;52.412;4.890;2023-04-22T20:25:28;100881.63;;;9.82;100.00
47260;BME280;32999;52.412;4.890;2023-04-22T20:30:32;100834.16;;;9.54;100.00
47260;BME280;32999;52.412;4.890;2023-04-22T20:35:35;100866.63;;;9.81;100.00
47260;BME280;32999;52.412;4.890;2023-04-22T20:40:38;100862.28;;;9.80;100.00
47260;BME280;32999;52.412;4.890;2023-04-22T20:45:41;100738.69;;;8.90;100.00
47260;BME280;32999;52.412;4.890;2023-04-22T20:50:43;100846.44;;;9.78;100.00
47260;BME280;32999;52.412;4.890;2023-04-22T20:55:45;100841.47;;;9.75;100.00
47260;BME280;32999;52.412;4.890;2023-04-22T21:00:48;100759.16;;;9.12;100.00
47260;BME280;32999;52.412;4.890;2023-04-22T21:05:50;100789.97;;;9.37;100.00
47260;BME280;32999;52.412;4.890;2023-04-22T21:10:54;100807.16;;;9.35;100.00
47260;BME280;32999;52.412;4.890;2023-04-22T21:16:01;100864.38;;;9.70;100.00
47260;BME280;32999;52.412;4.890;2023-04-22T21:21:04;100834.34;;;9.68;100.00
47260;BME280;32999;52.412;4.890;2023-04-22T21:26:08;100751.22;;;9.04;100.00
47260;BME280;32999;52.412;4.890;2023-04-22T21:31:12;100835.09;;;9.62;100.00
47260;BME280;32999;52.412;4.890;2023-04-22T21:36:14;100824.44;;;9.62;100.00
47260;BME280;32999;52.412;4.890;2023-04-22T21:41:16;100773.72;;;9.24;100.00
47260;BME280;32999;52.412;4.890;2023-04-22T21:46:19;100767.81;;;9.14;100.00
47260;BME280;32999;52.412;4.890;2023-04-22T21:51:23;100844.19;;;9.67;100.00
47260;BME280;32999;52.412;4.890;2023-04-22T21:56:26;100838.41;;;9.64;100.00
47260;BME280;32999;52.412;4.890;2023-04-22T22:01:32;100820.56;;;9.64;100.00
47260;BME280;32999;52.412;4.890;2023-04-22T22:06:33;100825.69;;;9.66;100.00
47260;BME280;32999;52.412;4.890;2023-04-22T22:11:35;100669.97;;;8.77;100.00
47260;BME280;32999;52.412;4.890;2023-04-22T22:16:38;100819.47;;;9.73;100.00
47260;BME280;32999;52.412;4.890;2023-04-22T22:21:41;100827.47;;;9.73;100.00
47260;BME280;32999;52.412;4.890;2023-04-22T22:26:45;100822.41;;;9.64;100.00
47260;BME280;32999;52.412;4.890;2023-04-22T22:31:48;100830.69;;;9.69;100.00
47260;BME280;32999;52.412;4.890;2023-04-22T22:36:50;100842.66;;;9.73;100.00
47260;BME280;32999;52.412;4.890;2023-04-22T22:41:52;100838.91;;;9.82;100.00
47260;BME280;32999;52.412;4.890;2023-04-22T22:46:56;100838.81;;;9.90;100.00
47260;BME280;32999;52.412;4.890;2023-04-22T22:51:57;100858.66;;;9.73;100.00
47260;BME280;32999;52.412;4.890;2023-04-22T22:57:00;100851.97;;;9.77;100.00
47260;BME280;32999;52.412;4.890;2023-04-22T23:02:06;100843.47;;;9.59;100.00
47260;BME280;32999;52.412;4.890;2023-04-22T23:07:08;100771.25;;;9.00;100.00
47260;BME280;32999;52.412;4.890;2023-04-22T23:12:09;100754.41;;;8.99;100.00
47260;BME280;32999;52.412;4.890;2023-04-22T23:17:13;100756.91;;;9.01;100.00
47260;BME280;32999;52.412;4.890;2023-04-22T23:22:17;100774.06;;;9.21;100.00
47260;BME280;32999;52.412;4.890;2023-04-22T23:27:19;100845.63;;;9.78;100.00
47260;BME280;32999;52.412;4.890;2023-04-22T23:32:23;100792.69;;;9.29;100.00
47260;BME280;32999;52.412;4.890;2023-04-22T23:37:27;100744.25;;;9.17;100.00
47260;BME280;32999;52.412;4.890;2023-04-22T23:42:29;100831.25;;;9.64;100.00
47260;BME280;32999;52.412;4.890;2023-04-22T23:47:33;100819.41;;;9.81;100.00
47260;BME280;32999;52.412;4.890;2023-04-22T23:52:34;100839.94;;;9.96;100.00
47260;BME280;32999;52.412;4.890;2023-04-22T23:57:40;100755.84;;;9.47;100.00
